sensor_id;sensor_type;location;lat;lon;timestamp;P1;durP1;ratioP1;P2;durP2;ratioP2
60908;SDS011;46780;48.128;-1.704;2022-10-16T00:00:11;17.13;;;3.50;;
60908;SDS011;46780;48.128;-1.704;2022-10-16T00:02:38;15.02;;;3.50;;
60908;SDS011;46780;48.128;-1.704;2022-10-16T00:05:05;11.18;;;3.47;;
60908;SDS011;46780;48.128;-1.704;2022-10-16T00:07:31;14.40;;;3.40;;
60908;SDS011;46780;48.128;-1.704;2022-10-16T00:09:58;15.35;;;4.40;;
60908;SDS011;46780;48.128;-1.704;2022-10-16T00:12:25;14.77;;;4.20;;
60908;SDS011;46780;48.128;-1.704;2022-10-16T00:14:52;13.63;;;4.22;;
60908;SDS011;46780;48.128;-1.704;2022-10-16T00:17:18;17.63;;;4.40;;
60908;SDS011;46780;48.128;-1.704;2022-10-16T00:19:45;14.38;;;4.47;;
60908;SDS011;46780;48.128;-1.704;2022-10-16T00:22:11;20.05;;;4.72;;
60908;SDS011;46780;48.128;-1.704;2022-10-16T00:24:38;14.82;;;5.88;;
60908;SDS011;46780;48.128;-1.704;2022-10-16T00:27:04;16.92;;;5.70;;
60908;SDS011;46780;48.128;-1.704;2022-10-16T00:29:32;17.67;;;5.75;;
60908;SDS011;46780;48.128;-1.704;2022-10-16T00:31:58;17.08;;;6.43;;
60908;SDS011;46780;48.128;-1.704;2022-10-16T00:34:25;20.38;;;6.40;;
60908;SDS011;46780;48.128;-1.704;2022-10-16T00:36:51;19.52;;;7.20;;
60908;SDS011;46780;48.128;-1.704;2022-10-16T00:39:18;20.13;;;7.20;;
60908;SDS011;46780;48.128;-1.704;2022-10-16T00:41:44;21.52;;;6.75;;
60908;SDS011;46780;48.128;-1.704;2022-10-16T00:47:17;16.02;;;7.30;;
60908;SDS011;46780;48.128;-1.704;2022-10-16T00:49:47;22.02;;;7.45;;
60908;SDS011;46780;48.128;-1.704;2022-10-16T00:52:17;21.17;;;7.68;;
60908;SDS011;46780;48.128;-1.704;2022-10-16T00:54:44;19.20;;;8.48;;
60908;SDS011;46780;48.128;-1.704;2022-10-16T00:57:12;26.27;;;8.60;;
60908;SDS011;46780;48.128;-1.704;2022-10-16T00:59:40;19.48;;;8.35;;
60908;SDS011;46780;48.128;-1.704;2022-10-16T01:02:14;21.67;;;8.60;;
60908;SDS011;46780;48.128;-1.704;2022-10-16T01:04:42;20.15;;;8.98;;
60908;SDS011;46780;48.128;-1.704;2022-10-16T01:07:12;34.42;;;9.18;;
60908;SDS011;46780;48.128;-1.704;2022-10-16T01:09:47;20.85;;;8.70;;
60908;SDS011;46780;48.128;-1.704;2022-10-16T01:12:21;21.63;;;8.90;;
60908;SDS011;46780;48.128;-1.704;2022-10-16T01:14:57;19.95;;;8.75;;
60908;SDS011;46780;48.128;-1.704;2022-10-16T01:17:29;23.42;;;8.77;;
60908;SDS011;46780;48.128;-1.704;2022-10-16T01:20:02;20.58;;;9.05;;
60908;SDS011;46780;48.128;-1.704;2022-10-16T01:22:37;22.63;;;9.02;;
60908;SDS011;46780;48.128;-1.704;2022-10-16T01:25:16;25.73;;;8.70;;
60908;SDS011;46780;48.128;-1.704;2022-10-16T01:27:50;23.77;;;8.68;;
60908;SDS011;46780;48.128;-1.704;2022-10-16T01:30:18;24.50;;;8.75;;
60908;SDS011;46780;48.128;-1.704;2022-10-16T01:32:49;22.67;;;8.88;;
60908;SDS011;46780;48.128;-1.704;2022-10-16T01:35:21;22.10;;;8.63;;
60908;SDS011;46780;48.128;-1.704;2022-10-16T01:37:51;23.20;;;8.77;;
60908;SDS011;46780;48.128;-1.704;2022-10-16T01:40:22;19.67;;;8.43;;
60908;SDS011;46780;48.128;-1.704;2022-10-16T01:42:54;23.33;;;8.50;;
60908;SDS011;46780;48.128;-1.704;2022-10-16T01:45:24;22.10;;;8.35;;
60908;SDS011;46780;48.128;-1.704;2022-10-16T01:47:53;23.70;;;9.02;;
60908;SDS011;46780;48.128;-1.704;2022-10-16T01:50:20;18.55;;;8.40;;
60908;SDS011;46780;48.128;-1.704;2022-10-16T01:52:48;20.60;;;8.40;;
60908;SDS011;46780;48.128;-1.704;2022-10-16T01:55:18;29.33;;;8.68;;
60908;SDS011;46780;48.128;-1.704;2022-10-16T01:57:49;25.40;;;7.95;;
60908;SDS011;46780;48.128;-1.704;2022-10-16T02:00:19;25.33;;;8.45;;
60908;SDS011;46780;48.128;-1.704;2022-10-16T02:02:47;22.40;;;8.00;;
60908;SDS011;46780;48.128;-1.704;2022-10-16T02:05:16;24.83;;;8.13;;
60908;SDS011;46780;48.128;-1.704;2022-10-16T02:07:47;20.90;;;8.15;;
60908;SDS011;46780;48.128;-1.704;2022-10-16T02:10:15;18.95;;;7.18;;
60908;SDS011;46780;48.128;-1.704;2022-10-16T02:12:43;26.23;;;8.00;;
60908;SDS011;46780;48.128;-1.704;2022-10-16T02:15:13;21.60;;;7.70;;
60908;SDS011;46780;48.128;-1.704;2022-10-16T02:17:41;17.90;;;7.60;;
60908;SDS011;46780;48.128;-1.704;2022-10-16T02:20:08;22.23;;;7.63;;
60908;SDS011;46780;48.128;-1.704;2022-10-16T02:22:36;22.58;;;7.55;;
60908;SDS011;46780;48.128;-1.704;2022-10-16T02:25:06;22.75;;;7.32;;
60908;SDS011;46780;48.128;-1.704;2022-10-16T02:27:38;18.27;;;6.85;;
60908;SDS011;46780;48.128;-1.704;2022-10-16T02:30:09;23.05;;;7.47;;
60908;SDS011;46780;48.128;-1.704;2022-10-16T02:32:42;27.40;;;7.75;;
60908;SDS011;46780;48.128;-1.704;2022-10-16T02:37:37;14.63;;;6.43;;
60908;SDS011;46780;48.128;-1.704;2022-10-16T02:40:06;18.10;;;7.13;;
60908;SDS011;46780;48.128;-1.704;2022-10-16T02:42:34;22.65;;;7.43;;
60908;SDS011;46780;48.128;-1.704;2022-10-16T02:45:03;28.40;;;8.13;;
60908;SDS011;46780;48.128;-1.704;2022-10-16T02:47:30;26.33;;;7.80;;
60908;SDS011;46780;48.128;-1.704;2022-10-16T02:49:58;19.88;;;7.45;;
60908;SDS011;46780;48.128;-1.704;2022-10-16T02:52:25;20.85;;;7.40;;
60908;SDS011;46780;48.128;-1.704;2022-10-16T02:54:52;20.80;;;7.60;;
60908;SDS011;46780;48.128;-1.704;2022-10-16T02:57:18;18.60;;;7.55;;
60908;SDS011;46780;48.128;-1.704;2022-10-16T02:59:45;19.08;;;7.53;;
60908;SDS011;46780;48.128;-1.704;2022-10-16T03:02:11;22.00;;;7.60;;
60908;SDS011;46780;48.128;-1.704;2022-10-16T03:04:40;22.13;;;7.78;;
60908;SDS011;46780;48.128;-1.704;2022-10-16T03:07:08;22.35;;;8.05;;
60908;SDS011;46780;48.128;-1.704;2022-10-16T03:09:36;23.23;;;7.45;;
60908;SDS011;46780;48.128;-1.704;2022-10-16T03:12:04;21.02;;;7.97;;
60908;SDS011;46780;48.128;-1.704;2022-10-16T03:14:32;28.10;;;8.77;;
60908;SDS011;46780;48.128;-1.704;2022-10-16T03:17:00;21.80;;;8.18;;
60908;SDS011;46780;48.128;-1.704;2022-10-16T03:19:29;22.17;;;7.90;;
60908;SDS011;46780;48.128;-1.704;2022-10-16T03:21:57;22.27;;;7.13;;
60908;SDS011;46780;48.128;-1.704;2022-10-16T03:24:26;24.45;;;8.25;;
60908;SDS011;46780;48.128;-1.704;2022-10-16T03:26:55;25.27;;;8.90;;
60908;SDS011;46780;48.128;-1.704;2022-10-16T03:29:23;26.92;;;8.80;;
60908;SDS011;46780;48.128;-1.704;2022-10-16T03:31:50;25.13;;;8.50;;
60908;SDS011;46780;48.128;-1.704;2022-10-16T03:34:16;22.98;;;8.75;;
60908;SDS011;46780;48.128;-1.704;2022-10-16T03:36:43;25.98;;;9.05;;
60908;SDS011;46780;48.128;-1.704;2022-10-16T03:39:10;26.55;;;9.07;;
60908;SDS011;46780;48.128;-1.704;2022-10-16T03:41:39;27.00;;;9.05;;
60908;SDS011;46780;48.128;-1.704;2022-10-16T03:44:05;28.58;;;9.43;;
60908;SDS011;46780;48.128;-1.704;2022-10-16T03:46:32;23.67;;;9.45;;
60908;SDS011;46780;48.128;-1.704;2022-10-16T03:48:59;20.77;;;8.65;;
60908;SDS011;46780;48.128;-1.704;2022-10-16T03:51:25;23.83;;;8.50;;
60908;SDS011;46780;48.128;-1.704;2022-10-16T03:53:52;24.80;;;9.27;;
60908;SDS011;46780;48.128;-1.704;2022-10-16T03:56:18;26.25;;;9.07;;
60908;SDS011;46780;48.128;-1.704;2022-10-16T03:58:46;27.35;;;9.02;;
60908;SDS011;46780;48.128;-1.704;2022-10-16T04:01:14;29.70;;;9.32;;
60908;SDS011;46780;48.128;-1.704;2022-10-16T04:03:41;25.83;;;8.85;;
60908;SDS011;46780;48.128;-1.704;2022-10-16T04:06:08;25.83;;;9.20;;
60908;SDS011;46780;48.128;-1.704;2022-10-16T04:08:35;25.13;;;9.27;;
60908;SDS011;46780;48.128;-1.704;2022-10-16T04:11:01;27.85;;;9.13;;
60908;SDS011;46780;48.128;-1.704;2022-10-16T04:13:28;29.05;;;9.35;;
60908;SDS011;46780;48.128;-1.704;2022-10-16T04:15:56;28.33;;;9.27;;
60908;SDS011;46780;48.128;-1.704;2022-10-16T04:18:23;26.75;;;8.45;;
60908;SDS011;46780;48.128;-1.704;2022-10-16T04:20:49;17.92;;;8.50;;
60908;SDS011;46780;48.128;-1.704;2022-10-16T04:23:16;24.88;;;8.75;;
60908;SDS011;46780;48.128;-1.704;2022-10-16T04:25:42;30.52;;;9.20;;
60908;SDS011;46780;48.128;-1.704;2022-10-16T04:28:09;22.55;;;8.88;;
60908;SDS011;46780;48.128;-1.704;2022-10-16T04:30:37;29.42;;;9.55;;
60908;SDS011;46780;48.128;-1.704;2022-10-16T04:33:05;27.58;;;9.02;;
60908;SDS011;46780;48.128;-1.704;2022-10-16T04:35:32;29.55;;;9.30;;
60908;SDS011;46780;48.128;-1.704;2022-10-16T04:37:58;30.05;;;9.57;;
60908;SDS011;46780;48.128;-1.704;2022-10-16T04:40:24;31.73;;;10.68;;
60908;SDS011;46780;48.128;-1.704;2022-10-16T04:42:51;24.25;;;9.43;;
60908;SDS011;46780;48.128;-1.704;2022-10-16T04:45:18;36.08;;;9.95;;
60908;SDS011;46780;48.128;-1.704;2022-10-16T04:47:44;29.70;;;9.95;;
60908;SDS011;46780;48.128;-1.704;2022-10-16T04:50:12;24.50;;;9.40;;
60908;SDS011;46780;48.128;-1.704;2022-10-16T04:52:38;31.73;;;9.85;;
60908;SDS011;46780;48.128;-1.704;2022-10-16T04:55:05;24.00;;;9.43;;
60908;SDS011;46780;48.128;-1.704;2022-10-16T04:57:32;30.58;;;9.75;;
60908;SDS011;46780;48.128;-1.704;2022-10-16T04:59:59;28.70;;;9.32;;
60908;SDS011;46780;48.128;-1.704;2022-10-16T05:02:26;23.55;;;9.55;;
60908;SDS011;46780;48.128;-1.704;2022-10-16T05:04:52;28.23;;;10.55;;
60908;SDS011;46780;48.128;-1.704;2022-10-16T05:07:20;34.03;;;10.40;;
60908;SDS011;46780;48.128;-1.704;2022-10-16T05:09:47;30.00;;;9.60;;
60908;SDS011;46780;48.128;-1.704;2022-10-16T05:12:13;26.90;;;10.07;;
60908;SDS011;46780;48.128;-1.704;2022-10-16T05:14:40;33.58;;;10.07;;
60908;SDS011;46780;48.128;-1.704;2022-10-16T05:17:06;29.15;;;10.15;;
60908;SDS011;46780;48.128;-1.704;2022-10-16T05:19:33;25.95;;;10.52;;
60908;SDS011;46780;48.128;-1.704;2022-10-16T05:21:59;25.83;;;10.40;;
60908;SDS011;46780;48.128;-1.704;2022-10-16T05:24:27;31.63;;;9.88;;
60908;SDS011;46780;48.128;-1.704;2022-10-16T05:26:54;31.88;;;10.50;;
60908;SDS011;46780;48.128;-1.704;2022-10-16T05:29:20;30.17;;;10.52;;
60908;SDS011;46780;48.128;-1.704;2022-10-16T05:31:49;35.05;;;11.57;;
60908;SDS011;46780;48.128;-1.704;2022-10-16T05:34:16;28.40;;;10.85;;
60908;SDS011;46780;48.128;-1.704;2022-10-16T05:36:43;32.08;;;10.68;;
60908;SDS011;46780;48.128;-1.704;2022-10-16T05:39:09;29.02;;;10.70;;
60908;SDS011;46780;48.128;-1.704;2022-10-16T05:41:37;31.70;;;11.18;;
60908;SDS011;46780;48.128;-1.704;2022-10-16T05:44:04;29.85;;;10.80;;
60908;SDS011;46780;48.128;-1.704;2022-10-16T05:46:31;29.13;;;10.75;;
60908;SDS011;46780;48.128;-1.704;2022-10-16T05:48:58;25.85;;;11.13;;
60908;SDS011;46780;48.128;-1.704;2022-10-16T05:51:24;31.40;;;11.13;;
60908;SDS011;46780;48.128;-1.704;2022-10-16T05:53:51;27.17;;;11.20;;
60908;SDS011;46780;48.128;-1.704;2022-10-16T05:56:18;31.00;;;12.15;;
60908;SDS011;46780;48.128;-1.704;2022-10-16T05:58:46;41.25;;;11.75;;
60908;SDS011;46780;48.128;-1.704;2022-10-16T06:01:13;30.98;;;11.98;;
60908;SDS011;46780;48.128;-1.704;2022-10-16T06:03:41;36.20;;;12.18;;
60908;SDS011;46780;48.128;-1.704;2022-10-16T06:06:08;30.83;;;12.30;;
60908;SDS011;46780;48.128;-1.704;2022-10-16T06:08:36;28.50;;;11.05;;
60908;SDS011;46780;48.128;-1.704;2022-10-16T06:11:02;36.78;;;11.82;;
60908;SDS011;46780;48.128;-1.704;2022-10-16T06:13:30;30.45;;;11.85;;
60908;SDS011;46780;48.128;-1.704;2022-10-16T06:15:58;34.92;;;11.88;;
60908;SDS011;46780;48.128;-1.704;2022-10-16T06:18:26;32.20;;;11.85;;
60908;SDS011;46780;48.128;-1.704;2022-10-16T06:20:52;29.35;;;12.27;;
60908;SDS011;46780;48.128;-1.704;2022-10-16T06:23:19;39.42;;;13.15;;
60908;SDS011;46780;48.128;-1.704;2022-10-16T06:25:45;40.03;;;12.10;;
60908;SDS011;46780;48.128;-1.704;2022-10-16T06:28:13;42.20;;;12.75;;
60908;SDS011;46780;48.128;-1.704;2022-10-16T06:30:40;35.60;;;13.07;;
60908;SDS011;46780;48.128;-1.704;2022-10-16T06:33:08;36.40;;;12.43;;
60908;SDS011;46780;48.128;-1.704;2022-10-16T06:35:35;45.00;;;12.43;;
60908;SDS011;46780;48.128;-1.704;2022-10-16T06:38:01;43.15;;;13.15;;
60908;SDS011;46780;48.128;-1.704;2022-10-16T06:40:27;48.10;;;13.32;;
60908;SDS011;46780;48.128;-1.704;2022-10-16T06:42:54;34.47;;;12.90;;
60908;SDS011;46780;48.128;-1.704;2022-10-16T06:45:21;47.95;;;13.05;;
60908;SDS011;46780;48.128;-1.704;2022-10-16T06:47:48;48.22;;;14.23;;
60908;SDS011;46780;48.128;-1.704;2022-10-16T06:50:16;43.90;;;14.15;;
60908;SDS011;46780;48.128;-1.704;2022-10-16T06:52:43;44.13;;;14.35;;
60908;SDS011;46780;48.128;-1.704;2022-10-16T06:55:09;45.10;;;14.20;;
60908;SDS011;46780;48.128;-1.704;2022-10-16T06:57:35;43.03;;;13.65;;
60908;SDS011;46780;48.128;-1.704;2022-10-16T07:00:02;46.15;;;14.45;;
60908;SDS011;46780;48.128;-1.704;2022-10-16T07:02:29;53.38;;;14.90;;
60908;SDS011;46780;48.128;-1.704;2022-10-16T07:04:56;51.30;;;14.00;;
60908;SDS011;46780;48.128;-1.704;2022-10-16T07:07:23;43.67;;;13.70;;
60908;SDS011;46780;48.128;-1.704;2022-10-16T07:09:50;39.88;;;14.13;;
60908;SDS011;46780;48.128;-1.704;2022-10-16T07:12:16;37.13;;;12.93;;
60908;SDS011;46780;48.128;-1.704;2022-10-16T07:14:43;27.88;;;11.38;;
60908;SDS011;46780;48.128;-1.704;2022-10-16T07:17:09;39.05;;;11.90;;
60908;SDS011;46780;48.128;-1.704;2022-10-16T07:19:36;26.10;;;11.55;;
60908;SDS011;46780;48.128;-1.704;2022-10-16T07:22:02;25.00;;;10.30;;
60908;SDS011;46780;48.128;-1.704;2022-10-16T07:24:30;21.40;;;9.60;;
60908;SDS011;46780;48.128;-1.704;2022-10-16T07:26:57;21.77;;;8.70;;
60908;SDS011;46780;48.128;-1.704;2022-10-16T07:29:23;24.88;;;8.88;;
60908;SDS011;46780;48.128;-1.704;2022-10-16T07:31:50;19.95;;;8.18;;
60908;SDS011;46780;48.128;-1.704;2022-10-16T07:34:17;18.88;;;8.57;;
60908;SDS011;46780;48.128;-1.704;2022-10-16T07:36:47;20.63;;;7.32;;
60908;SDS011;46780;48.128;-1.704;2022-10-16T07:39:13;20.75;;;7.68;;
60908;SDS011;46780;48.128;-1.704;2022-10-16T07:41:41;14.25;;;6.38;;
60908;SDS011;46780;48.128;-1.704;2022-10-16T07:44:08;15.02;;;5.75;;
60908;SDS011;46780;48.128;-1.704;2022-10-16T07:46:34;12.77;;;5.10;;
60908;SDS011;46780;48.128;-1.704;2022-10-16T07:49:01;10.35;;;3.85;;
60908;SDS011;46780;48.128;-1.704;2022-10-16T07:51:28;14.73;;;4.35;;
60908;SDS011;46780;48.128;-1.704;2022-10-16T07:53:54;11.18;;;3.70;;
60908;SDS011;46780;48.128;-1.704;2022-10-16T07:56:21;14.45;;;4.00;;
60908;SDS011;46780;48.128;-1.704;2022-10-16T07:58:50;11.55;;;3.40;;
60908;SDS011;46780;48.128;-1.704;2022-10-16T08:01:17;7.18;;;2.70;;
60908;SDS011;46780;48.128;-1.704;2022-10-16T08:03:44;9.00;;;2.90;;
60908;SDS011;46780;48.128;-1.704;2022-10-16T08:06:12;9.57;;;2.70;;
60908;SDS011;46780;48.128;-1.704;2022-10-16T08:08:38;7.95;;;2.50;;
60908;SDS011;46780;48.128;-1.704;2022-10-16T08:11:05;7.05;;;2.35;;
60908;SDS011;46780;48.128;-1.704;2022-10-16T08:13:31;8.40;;;2.58;;
60908;SDS011;46780;48.128;-1.704;2022-10-16T08:15:59;10.45;;;2.40;;
60908;SDS011;46780;48.128;-1.704;2022-10-16T08:18:26;7.90;;;2.35;;
60908;SDS011;46780;48.128;-1.704;2022-10-16T08:20:56;9.25;;;2.22;;
60908;SDS011;46780;48.128;-1.704;2022-10-16T08:25:50;7.18;;;2.20;;
60908;SDS011;46780;48.128;-1.704;2022-10-16T08:28:16;8.85;;;2.20;;
60908;SDS011;46780;48.128;-1.704;2022-10-16T08:30:43;9.70;;;2.42;;
60908;SDS011;46780;48.128;-1.704;2022-10-16T08:33:10;12.98;;;2.72;;
60908;SDS011;46780;48.128;-1.704;2022-10-16T08:35:37;6.68;;;2.20;;
60908;SDS011;46780;48.128;-1.704;2022-10-16T08:38:03;9.68;;;2.40;;
60908;SDS011;46780;48.128;-1.704;2022-10-16T08:40:31;6.10;;;2.00;;
60908;SDS011;46780;48.128;-1.704;2022-10-16T08:43:12;12.57;;;2.15;;
60908;SDS011;46780;48.128;-1.704;2022-10-16T08:45:57;7.43;;;2.40;;
60908;SDS011;46780;48.128;-1.704;2022-10-16T08:48:35;9.57;;;2.20;;
60908;SDS011;46780;48.128;-1.704;2022-10-16T08:51:07;8.75;;;2.00;;
60908;SDS011;46780;48.128;-1.704;2022-10-16T08:53:38;10.82;;;2.13;;
60908;SDS011;46780;48.128;-1.704;2022-10-16T08:56:12;7.13;;;1.90;;
60908;SDS011;46780;48.128;-1.704;2022-10-16T08:58:38;8.98;;;2.17;;
60908;SDS011;46780;48.128;-1.704;2022-10-16T09:01:12;7.47;;;2.00;;
60908;SDS011;46780;48.128;-1.704;2022-10-16T09:03:45;8.52;;;1.90;;
60908;SDS011;46780;48.128;-1.704;2022-10-16T09:06:30;7.90;;;1.80;;
60908;SDS011;46780;48.128;-1.704;2022-10-16T09:09:11;6.30;;;1.80;;
60908;SDS011;46780;48.128;-1.704;2022-10-16T09:11:58;6.50;;;1.70;;
60908;SDS011;46780;48.128;-1.704;2022-10-16T09:14:34;6.15;;;1.63;;
60908;SDS011;46780;48.128;-1.704;2022-10-16T09:17:19;7.82;;;1.70;;
60908;SDS011;46780;48.128;-1.704;2022-10-16T09:19:56;8.10;;;1.80;;
60908;SDS011;46780;48.128;-1.704;2022-10-16T09:22:29;8.82;;;1.63;;
60908;SDS011;46780;48.128;-1.704;2022-10-16T09:24:58;8.32;;;1.42;;
60908;SDS011;46780;48.128;-1.704;2022-10-16T09:27:30;11.38;;;1.77;;
60908;SDS011;46780;48.128;-1.704;2022-10-16T09:29:57;8.73;;;2.05;;
60908;SDS011;46780;48.128;-1.704;2022-10-16T09:32:23;9.02;;;1.60;;
60908;SDS011;46780;48.128;-1.704;2022-10-16T09:34:50;8.73;;;1.85;;
60908;SDS011;46780;48.128;-1.704;2022-10-16T09:37:21;8.10;;;1.70;;
60908;SDS011;46780;48.128;-1.704;2022-10-16T09:39:50;9.70;;;1.88;;
60908;SDS011;46780;48.128;-1.704;2022-10-16T09:42:18;10.20;;;1.95;;
60908;SDS011;46780;48.128;-1.704;2022-10-16T09:44:47;8.00;;;2.03;;
60908;SDS011;46780;48.128;-1.704;2022-10-16T09:47:16;14.02;;;2.08;;
60908;SDS011;46780;48.128;-1.704;2022-10-16T09:49:50;7.80;;;1.50;;
60908;SDS011;46780;48.128;-1.704;2022-10-16T09:52:18;7.65;;;1.40;;
60908;SDS011;46780;48.128;-1.704;2022-10-16T09:54:50;8.23;;;1.40;;
60908;SDS011;46780;48.128;-1.704;2022-10-16T09:57:20;10.02;;;1.45;;
60908;SDS011;46780;48.128;-1.704;2022-10-16T10:02:16;8.10;;;1.73;;
60908;SDS011;46780;48.128;-1.704;2022-10-16T10:04:47;10.98;;;1.40;;
60908;SDS011;46780;48.128;-1.704;2022-10-16T10:07:19;8.32;;;1.60;;
60908;SDS011;46780;48.128;-1.704;2022-10-16T10:09:51;7.10;;;1.50;;
60908;SDS011;46780;48.128;-1.704;2022-10-16T10:12:20;7.75;;;1.50;;
60908;SDS011;46780;48.128;-1.704;2022-10-16T10:14:48;6.80;;;1.50;;
60908;SDS011;46780;48.128;-1.704;2022-10-16T10:17:17;7.05;;;1.50;;
60908;SDS011;46780;48.128;-1.704;2022-10-16T10:19:49;6.32;;;1.33;;
60908;SDS011;46780;48.128;-1.704;2022-10-16T10:22:27;8.18;;;1.70;;
60908;SDS011;46780;48.128;-1.704;2022-10-16T10:25:00;8.07;;;1.60;;
60908;SDS011;46780;48.128;-1.704;2022-10-16T10:27:40;8.35;;;1.73;;
60908;SDS011;46780;48.128;-1.704;2022-10-16T10:30:18;7.95;;;1.42;;
60908;SDS011;46780;48.128;-1.704;2022-10-16T10:32:50;6.93;;;1.60;;
60908;SDS011;46780;48.128;-1.704;2022-10-16T10:35:28;8.77;;;1.40;;
60908;SDS011;46780;48.128;-1.704;2022-10-16T10:38:04;7.82;;;1.40;;
60908;SDS011;46780;48.128;-1.704;2022-10-16T10:40:44;6.88;;;1.70;;
60908;SDS011;46780;48.128;-1.704;2022-10-16T10:43:22;8.68;;;1.45;;
60908;SDS011;46780;48.128;-1.704;2022-10-16T10:45:58;12.05;;;4.63;;
60908;SDS011;46780;48.128;-1.704;2022-10-16T10:48:40;9.32;;;1.95;;
60908;SDS011;46780;48.128;-1.704;2022-10-16T10:51:25;7.85;;;1.42;;
60908;SDS011;46780;48.128;-1.704;2022-10-16T10:54:05;8.43;;;1.80;;
60908;SDS011;46780;48.128;-1.704;2022-10-16T10:56:42;10.23;;;1.75;;
60908;SDS011;46780;48.128;-1.704;2022-10-16T10:59:26;7.47;;;1.60;;
60908;SDS011;46780;48.128;-1.704;2022-10-16T11:02:09;6.68;;;1.95;;
60908;SDS011;46780;48.128;-1.704;2022-10-16T11:04:48;8.02;;;1.52;;
60908;SDS011;46780;48.128;-1.704;2022-10-16T11:07:26;9.02;;;2.03;;
60908;SDS011;46780;48.128;-1.704;2022-10-16T11:09:58;8.65;;;1.58;;
60908;SDS011;46780;48.128;-1.704;2022-10-16T11:12:29;14.30;;;1.70;;
60908;SDS011;46780;48.128;-1.704;2022-10-16T11:15:02;11.45;;;1.73;;
60908;SDS011;46780;48.128;-1.704;2022-10-16T11:17:38;7.82;;;1.65;;
60908;SDS011;46780;48.128;-1.704;2022-10-16T11:20:11;8.07;;;1.63;;
60908;SDS011;46780;48.128;-1.704;2022-10-16T11:22:41;7.50;;;1.60;;
60908;SDS011;46780;48.128;-1.704;2022-10-16T11:25:13;8.32;;;2.03;;
60908;SDS011;46780;48.128;-1.704;2022-10-16T11:27:44;6.03;;;1.70;;
60908;SDS011;46780;48.128;-1.704;2022-10-16T11:30:18;9.20;;;1.80;;
60908;SDS011;46780;48.128;-1.704;2022-10-16T11:32:52;11.63;;;2.10;;
60908;SDS011;46780;48.128;-1.704;2022-10-16T11:35:33;10.90;;;2.10;;
60908;SDS011;46780;48.128;-1.704;2022-10-16T11:38:07;11.07;;;2.40;;
60908;SDS011;46780;48.128;-1.704;2022-10-16T11:40:42;7.95;;;1.85;;
60908;SDS011;46780;48.128;-1.704;2022-10-16T11:43:14;9.63;;;2.25;;
60908;SDS011;46780;48.128;-1.704;2022-10-16T11:45:47;10.45;;;2.20;;
60908;SDS011;46780;48.128;-1.704;2022-10-16T11:48:18;12.57;;;2.42;;
60908;SDS011;46780;48.128;-1.704;2022-10-16T11:50:51;13.15;;;3.00;;
60908;SDS011;46780;48.128;-1.704;2022-10-16T11:53:22;12.20;;;3.30;;
60908;SDS011;46780;48.128;-1.704;2022-10-16T11:55:55;11.55;;;3.45;;
60908;SDS011;46780;48.128;-1.704;2022-10-16T11:58:23;11.48;;;3.08;;
60908;SDS011;46780;48.128;-1.704;2022-10-16T12:00:54;11.05;;;3.72;;
60908;SDS011;46780;48.128;-1.704;2022-10-16T12:03:26;12.77;;;3.33;;
60908;SDS011;46780;48.128;-1.704;2022-10-16T12:06:03;13.00;;;3.38;;
60908;SDS011;46780;48.128;-1.704;2022-10-16T12:08:41;11.38;;;3.20;;
60908;SDS011;46780;48.128;-1.704;2022-10-16T12:11:20;10.32;;;3.00;;
60908;SDS011;46780;48.128;-1.704;2022-10-16T12:14:03;14.80;;;3.10;;
60908;SDS011;46780;48.128;-1.704;2022-10-16T12:16:50;11.65;;;2.67;;
60908;SDS011;46780;48.128;-1.704;2022-10-16T12:19:18;10.73;;;3.30;;
60908;SDS011;46780;48.128;-1.704;2022-10-16T12:21:45;13.68;;;3.20;;
60908;SDS011;46780;48.128;-1.704;2022-10-16T12:24:20;13.63;;;3.20;;
60908;SDS011;46780;48.128;-1.704;2022-10-16T12:26:59;9.32;;;3.05;;
60908;SDS011;46780;48.128;-1.704;2022-10-16T12:29:30;9.70;;;3.20;;
60908;SDS011;46780;48.128;-1.704;2022-10-16T12:31:59;10.25;;;3.30;;
60908;SDS011;46780;48.128;-1.704;2022-10-16T12:34:27;8.65;;;3.25;;
60908;SDS011;46780;48.128;-1.704;2022-10-16T12:36:55;9.93;;;3.13;;
60908;SDS011;46780;48.128;-1.704;2022-10-16T12:39:33;12.00;;;3.25;;
60908;SDS011;46780;48.128;-1.704;2022-10-16T12:42:03;11.20;;;2.90;;
60908;SDS011;46780;48.128;-1.704;2022-10-16T12:44:32;11.00;;;3.03;;
60908;SDS011;46780;48.128;-1.704;2022-10-16T12:47:00;12.05;;;3.22;;
60908;SDS011;46780;48.128;-1.704;2022-10-16T12:49:31;10.82;;;3.13;;
60908;SDS011;46780;48.128;-1.704;2022-10-16T12:52:01;12.05;;;3.53;;
60908;SDS011;46780;48.128;-1.704;2022-10-16T12:54:28;13.07;;;3.92;;
60908;SDS011;46780;48.128;-1.704;2022-10-16T12:57:00;11.18;;;3.50;;
60908;SDS011;46780;48.128;-1.704;2022-10-16T12:59:48;11.85;;;3.50;;
60908;SDS011;46780;48.128;-1.704;2022-10-16T13:02:36;10.43;;;3.45;;
60908;SDS011;46780;48.128;-1.704;2022-10-16T13:05:25;8.18;;;3.38;;
60908;SDS011;46780;48.128;-1.704;2022-10-16T13:08:05;9.55;;;3.28;;
60908;SDS011;46780;48.128;-1.704;2022-10-16T13:10:51;11.20;;;3.65;;
60908;SDS011;46780;48.128;-1.704;2022-10-16T13:13:33;8.65;;;3.30;;
60908;SDS011;46780;48.128;-1.704;2022-10-16T13:16:20;8.43;;;3.50;;
60908;SDS011;46780;48.128;-1.704;2022-10-16T13:18:55;11.57;;;3.45;;
60908;SDS011;46780;48.128;-1.704;2022-10-16T13:21:34;7.95;;;3.75;;
60908;SDS011;46780;48.128;-1.704;2022-10-16T13:24:16;9.45;;;3.75;;
60908;SDS011;46780;48.128;-1.704;2022-10-16T13:26:52;11.00;;;3.42;;
60908;SDS011;46780;48.128;-1.704;2022-10-16T13:29:30;8.57;;;3.35;;
60908;SDS011;46780;48.128;-1.704;2022-10-16T13:31:57;10.82;;;3.88;;
60908;SDS011;46780;48.128;-1.704;2022-10-16T13:34:24;8.55;;;3.63;;
60908;SDS011;46780;48.128;-1.704;2022-10-16T13:36:52;10.52;;;3.95;;
60908;SDS011;46780;48.128;-1.704;2022-10-16T13:39:21;9.70;;;3.85;;
60908;SDS011;46780;48.128;-1.704;2022-10-16T13:41:57;10.52;;;4.25;;
60908;SDS011;46780;48.128;-1.704;2022-10-16T13:44:27;12.13;;;4.10;;
60908;SDS011;46780;48.128;-1.704;2022-10-16T13:46:59;10.35;;;4.07;;
60908;SDS011;46780;48.128;-1.704;2022-10-16T13:49:26;10.00;;;4.00;;
60908;SDS011;46780;48.128;-1.704;2022-10-16T13:51:53;9.50;;;4.10;;
60908;SDS011;46780;48.128;-1.704;2022-10-16T13:54:21;10.98;;;4.13;;
60908;SDS011;46780;48.128;-1.704;2022-10-16T13:56:47;11.82;;;4.28;;
60908;SDS011;46780;48.128;-1.704;2022-10-16T13:59:22;11.15;;;4.10;;
60908;SDS011;46780;48.128;-1.704;2022-10-16T14:01:52;10.95;;;4.40;;
60908;SDS011;46780;48.128;-1.704;2022-10-16T14:04:21;10.10;;;3.90;;
60908;SDS011;46780;48.128;-1.704;2022-10-16T14:06:49;10.20;;;3.65;;
60908;SDS011;46780;48.128;-1.704;2022-10-16T14:09:19;9.23;;;3.55;;
60908;SDS011;46780;48.128;-1.704;2022-10-16T14:11:49;6.10;;;3.38;;
60908;SDS011;46780;48.128;-1.704;2022-10-16T14:14:17;7.40;;;3.42;;
60908;SDS011;46780;48.128;-1.704;2022-10-16T14:16:44;8.55;;;3.53;;
60908;SDS011;46780;48.128;-1.704;2022-10-16T14:19:15;8.25;;;3.60;;
60908;SDS011;46780;48.128;-1.704;2022-10-16T14:21:46;6.10;;;3.10;;
60908;SDS011;46780;48.128;-1.704;2022-10-16T14:24:13;9.43;;;3.00;;
60908;SDS011;46780;48.128;-1.704;2022-10-16T14:26:48;8.88;;;2.90;;
60908;SDS011;46780;48.128;-1.704;2022-10-16T14:29:15;9.15;;;3.08;;
60908;SDS011;46780;48.128;-1.704;2022-10-16T14:31:53;8.20;;;3.00;;
60908;SDS011;46780;48.128;-1.704;2022-10-16T14:34:26;9.02;;;3.08;;
60908;SDS011;46780;48.128;-1.704;2022-10-16T14:36:54;7.47;;;2.83;;
60908;SDS011;46780;48.128;-1.704;2022-10-16T14:39:21;6.13;;;2.70;;
60908;SDS011;46780;48.128;-1.704;2022-10-16T14:41:51;7.82;;;2.92;;
60908;SDS011;46780;48.128;-1.704;2022-10-16T14:44:22;7.78;;;2.88;;
60908;SDS011;46780;48.128;-1.704;2022-10-16T14:46:56;5.85;;;2.50;;
60908;SDS011;46780;48.128;-1.704;2022-10-16T14:49:23;5.55;;;2.50;;